sensor_id;sensor_type;location;lat;lon;timestamp;pressure;altitude;pressure_sealevel;temperature;humidity
36254;BME280;22291;52.250;21.228;2023-12-07T00:01:32;100658.73;;;-1.10;90.53
36254;BME280;22291;52.250;21.228;2023-12-07T00:04:01;100670.02;;;-1.05;90.54
36254;BME280;22291;52.250;21.228;2023-12-07T00:06:28;100672.20;;;-1.02;90.61
36254;BME280;22291;52.250;21.228;2023-12-07T00:08:55;100672.06;;;-0.98;90.48
36254;BME280;22291;52.250;21.228;2023-12-07T00:11:24;100673.17;;;-0.97;90.24
36254;BME280;22291;52.250;21.228;2023-12-07T00:13:51;100669.94;;;-0.99;90.19
36254;BME280;22291;52.250;21.228;2023-12-07T00:16:18;100669.62;;;-1.00;90.16
36254;BME280;22291;52.250;21.228;2023-12-07T00:18:45;100672.28;;;-1.00;90.17
36254;BME280;22291;52.250;21.228;2023-12-07T00:21:11;100667.72;;;-1.02;90.21
36254;BME280;22291;52.250;21.228;2023-12-07T00:23:38;100672.20;;;-1.02;90.25
36254;BME280;22291;52.250;21.228;2023-12-07T00:26:06;100671.39;;;-1.03;90.32
36254;BME280;22291;52.250;21.228;2023-12-07T00:28:33;100674.86;;;-1.02;90.39
36254;BME280;22291;52.250;21.228;2023-12-07T00:30:59;100676.48;;;-1.01;90.48
36254;BME280;22291;52.250;21.228;2023-12-07T00:33:28;100677.23;;;-1.03;90.48
36254;BME280;22291;52.250;21.228;2023-12-07T00:35:55;100682.02;;;-1.03;90.53
36254;BME280;22291;52.250;21.228;2023-12-07T00:38:22;100674.63;;;-1.01;90.57
36254;BME280;22291;52.250;21.228;2023-12-07T00:40:48;100668.30;;;-1.00;90.67
36254;BME280;22291;52.250;21.228;2023-12-07T00:43:15;100671.98;;;-1.01;90.73
36254;BME280;22291;52.250;21.228;2023-12-07T00:45:43;100670.87;;;-1.02;90.73
36254;BME280;22291;52.250;21.228;2023-12-07T00:48:09;100670.16;;;-1.00;90.76
36254;BME280;22291;52.250;21.228;2023-12-07T00:50:36;100672.81;;;-1.00;90.86
36254;BME280;22291;52.250;21.228;2023-12-07T00:53:02;100674.94;;;-1.00;90.97
36254;BME280;22291;52.250;21.228;2023-12-07T00:55:29;100665.06;;;-1.02;91.03
36254;BME280;22291;52.250;21.228;2023-12-07T00:57:56;100678.92;;;-1.00;91.15
36254;BME280;22291;52.250;21.228;2023-12-07T01:00:23;100669.33;;;-1.01;91.22
36254;BME280;22291;52.250;21.228;2023-12-07T01:02:49;100666.97;;;-1.00;91.29
36254;BME280;22291;52.250;21.228;2023-12-07T01:05:17;100671.48;;;-1.00;91.40
36254;BME280;22291;52.250;21.228;2023-12-07T01:07:44;100666.45;;;-0.99;91.50
36254;BME280;22291;52.250;21.228;2023-12-07T01:10:10;100671.76;;;-0.99;91.54
36254;BME280;22291;52.250;21.228;2023-12-07T01:12:37;100675.25;;;-0.99;91.59
36254;BME280;22291;52.250;21.228;2023-12-07T01:15:04;100677.66;;;-0.97;91.66
36254;BME280;22291;52.250;21.228;2023-12-07T01:17:31;100682.47;;;-0.97;91.73
36254;BME280;22291;52.250;21.228;2023-12-07T01:19:58;100677.96;;;-0.96;91.77
36254;BME280;22291;52.250;21.228;2023-12-07T01:22:24;100676.63;;;-0.96;91.86
36254;BME280;22291;52.250;21.228;2023-12-07T01:24:51;100679.88;;;-0.94;91.88
36254;BME280;22291;52.250;21.228;2023-12-07T01:27:18;100677.22;;;-0.94;91.95
36254;BME280;22291;52.250;21.228;2023-12-07T01:29:45;100685.48;;;-0.93;91.99
36254;BME280;22291;52.250;21.228;2023-12-07T01:32:12;100682.08;;;-0.91;92.02
36254;BME280;22291;52.250;21.228;2023-12-07T01:34:38;100674.42;;;-0.90;92.06
36254;BME280;22291;52.250;21.228;2023-12-07T01:37:05;100677.88;;;-0.89;92.09
36254;BME280;22291;52.250;21.228;2023-12-07T01:39:31;100671.24;;;-0.89;92.13
36254;BME280;22291;52.250;21.228;2023-12-07T01:41:58;100677.66;;;-0.88;92.15
36254;BME280;22291;52.250;21.228;2023-12-07T01:44:25;100675.53;;;-0.88;92.23
36254;BME280;22291;52.250;21.228;2023-12-07T01:46:54;100680.09;;;-0.86;92.21
36254;BME280;22291;52.250;21.228;2023-12-07T01:49:21;100669.17;;;-0.87;92.24
36254;BME280;22291;52.250;21.228;2023-12-07T01:51:48;100675.06;;;-0.85;92.27
36254;BME280;22291;52.250;21.228;2023-12-07T01:54:15;100667.40;;;-0.84;92.28
36254;BME280;22291;52.250;21.228;2023-12-07T01:56:42;100665.55;;;-0.84;92.29
36254;BME280;22291;52.250;21.228;2023-12-07T01:59:10;100661.56;;;-0.84;92.35
36254;BME280;22291;52.250;21.228;2023-12-07T02:01:38;100657.66;;;-0.81;92.37
36254;BME280;22291;52.250;21.228;2023-12-07T02:04:05;100665.84;;;-0.83;92.31
36254;BME280;22291;52.250;21.228;2023-12-07T02:06:31;100666.16;;;-0.82;92.34
36254;BME280;22291;52.250;21.228;2023-12-07T02:08:58;100660.53;;;-0.83;92.40
36254;BME280;22291;52.250;21.228;2023-12-07T02:11:25;100657.36;;;-0.82;92.39
36254;BME280;22291;52.250;21.228;2023-12-07T02:13:51;100656.86;;;-0.82;92.43
36254;BME280;22291;52.250;21.228;2023-12-07T02:16:23;100662.17;;;-0.82;92.46
36254;BME280;22291;52.250;21.228;2023-12-07T02:19:00;100663.77;;;-0.81;92.41
36254;BME280;22291;52.250;21.228;2023-12-07T02:21:37;100669.09;;;-0.81;92.45
36254;BME280;22291;52.250;21.228;2023-12-07T02:24:06;100659.79;;;-0.81;92.47
36254;BME280;22291;52.250;21.228;2023-12-07T02:26:36;100658.45;;;-0.81;92.53
36254;BME280;22291;52.250;21.228;2023-12-07T02:29:06;100663.25;;;-0.80;92.56
36254;BME280;22291;52.250;21.228;2023-12-07T02:31:34;100662.97;;;-0.81;92.44
36254;BME280;22291;52.250;21.228;2023-12-07T02:34:01;100669.61;;;-0.81;92.44
36254;BME280;22291;52.250;21.228;2023-12-07T02:36:29;100664.00;;;-0.82;92.51
36254;BME280;22291;52.250;21.228;2023-12-07T02:38:58;100662.39;;;-0.83;92.51
36254;BME280;22291;52.250;21.228;2023-12-07T02:41:28;100668.20;;;-0.84;92.52
36254;BME280;22291;52.250;21.228;2023-12-07T02:44:00;100674.56;;;-0.85;92.57
36254;BME280;22291;52.250;21.228;2023-12-07T02:46:28;100675.31;;;-0.87;92.62
36254;BME280;22291;52.250;21.228;2023-12-07T02:48:57;100670.49;;;-0.87;92.63
36254;BME280;22291;52.250;21.228;2023-12-07T02:51:24;100675.31;;;-0.87;92.67
36254;BME280;22291;52.250;21.228;2023-12-07T02:53:51;100676.11;;;-0.86;92.69
36254;BME280;22291;52.250;21.228;2023-12-07T02:56:17;100673.68;;;-0.88;92.74
36254;BME280;22291;52.250;21.228;2023-12-07T02:58:44;100672.88;;;-0.88;92.80
36254;BME280;22291;52.250;21.228;2023-12-07T03:01:11;100679.30;;;-0.87;92.85
36254;BME280;22291;52.250;21.228;2023-12-07T03:03:38;100678.69;;;-0.89;92.85
36254;BME280;22291;52.250;21.228;2023-12-07T03:06:07;100678.47;;;-0.87;92.88
36254;BME280;22291;52.250;21.228;2023-12-07T03:08:34;100675.80;;;-0.87;92.91
36254;BME280;22291;52.250;21.228;2023-12-07T03:11:01;100673.68;;;-0.88;92.94
36254;BME280;22291;52.250;21.228;2023-12-07T03:13:28;100676.86;;;-0.88;92.88
36254;BME280;22291;52.250;21.228;2023-12-07T03:15:54;100672.57;;;-0.89;92.93
36254;BME280;22291;52.250;21.228;2023-12-07T03:18:21;100677.13;;;-0.87;92.94
36254;BME280;22291;52.250;21.228;2023-12-07T03:20:48;100669.70;;;-0.88;92.98
36254;BME280;22291;52.250;21.228;2023-12-07T03:23:16;100671.24;;;-0.89;92.99
36254;BME280;22291;52.250;21.228;2023-12-07T03:25:43;100669.39;;;-0.89;93.03
36254;BME280;22291;52.250;21.228;2023-12-07T03:28:10;100666.73;;;-0.89;93.00
36254;BME280;22291;52.250;21.228;2023-12-07T03:30:37;100673.89;;;-0.89;93.06
36254;BME280;22291;52.250;21.228;2023-12-07T03:33:04;100671.77;;;-0.90;93.12
36254;BME280;22291;52.250;21.228;2023-12-07T03:35:30;100674.12;;;-0.91;93.13
36254;BME280;22291;52.250;21.228;2023-12-07T03:37:57;100676.25;;;-0.90;93.14
36254;BME280;22291;52.250;21.228;2023-12-07T03:40:24;100676.99;;;-0.92;93.14
36254;BME280;22291;52.250;21.228;2023-12-07T03:42:50;100675.45;;;-0.91;93.22
36254;BME280;22291;52.250;21.228;2023-12-07T03:45:17;100675.14;;;-0.92;93.31
36254;BME280;22291;52.250;21.228;2023-12-07T03:47:44;100672.79;;;-0.91;93.34
36254;BME280;22291;52.250;21.228;2023-12-07T03:50:11;100678.91;;;-0.90;93.36
36254;BME280;22291;52.250;21.228;2023-12-07T03:52:38;100676.47;;;-0.92;93.42
36254;BME280;22291;52.250;21.228;2023-12-07T03:55:06;100674.12;;;-0.91;93.49
36254;BME280;22291;52.250;21.228;2023-12-07T03:57:33;100671.98;;;-0.91;93.53
36254;BME280;22291;52.250;21.228;2023-12-07T04:00:00;100676.77;;;-0.91;93.60
36254;BME280;22291;52.250;21.228;2023-12-07T04:02:26;100679.73;;;-0.90;93.65
36254;BME280;22291;52.250;21.228;2023-12-07T04:04:53;100685.05;;;-0.90;93.68
36254;BME280;22291;52.250;21.228;2023-12-07T04:07:20;100683.19;;;-0.89;93.65
36254;BME280;22291;52.250;21.228;2023-12-07T04:09:47;100681.87;;;-0.89;93.73
36254;BME280;22291;52.250;21.228;2023-12-07T04:12:15;100680.53;;;-0.89;93.75
36254;BME280;22291;52.250;21.228;2023-12-07T04:14:42;100681.13;;;-0.87;93.78
36254;BME280;22291;52.250;21.228;2023-12-07T04:17:09;100685.10;;;-0.87;93.83
36254;BME280;22291;52.250;21.228;2023-12-07T04:19:36;100682.17;;;-0.88;93.81
36254;BME280;22291;52.250;21.228;2023-12-07T04:22:03;100685.63;;;-0.88;93.85
36254;BME280;22291;52.250;21.228;2023-12-07T04:24:29;100680.63;;;-0.87;93.84
36254;BME280;22291;52.250;21.228;2023-12-07T04:26:56;100685.69;;;-0.85;93.89
36254;BME280;22291;52.250;21.228;2023-12-07T04:29:23;100683.55;;;-0.86;93.87
36254;BME280;22291;52.250;21.228;2023-12-07T04:31:49;100684.88;;;-0.86;93.89
36254;BME280;22291;52.250;21.228;2023-12-07T04:34:16;100681.70;;;-0.85;93.94
36254;BME280;22291;52.250;21.228;2023-12-07T04:36:43;100685.19;;;-0.85;93.95
36254;BME280;22291;52.250;21.228;2023-12-07T04:39:10;100682.23;;;-0.86;93.99
36254;BME280;22291;52.250;21.228;2023-12-07T04:41:38;100681.20;;;-0.85;94.03
36254;BME280;22291;52.250;21.228;2023-12-07T04:44:05;100685.98;;;-0.84;94.01
36254;BME280;22291;52.250;21.228;2023-12-07T04:46:32;100678.82;;;-0.84;94.06
36254;BME280;22291;52.250;21.228;2023-12-07T04:48:59;100688.95;;;-0.83;94.07
36254;BME280;22291;52.250;21.228;2023-12-07T04:51:26;100685.77;;;-0.83;94.09
36254;BME280;22291;52.250;21.228;2023-12-07T04:53:52;100681.26;;;-0.82;94.12
36254;BME280;22291;52.250;21.228;2023-12-07T04:56:19;100682.89;;;-0.81;94.11
36254;BME280;22291;52.250;21.228;2023-12-07T04:58:46;100682.67;;;-0.80;94.14
36254;BME280;22291;52.250;21.228;2023-12-07T05:01:12;100686.35;;;-0.81;94.18
36254;BME280;22291;52.250;21.228;2023-12-07T05:03:39;100683.91;;;-0.82;94.21
36254;BME280;22291;52.250;21.228;2023-12-07T05:06:07;100686.35;;;-0.81;94.22
36254;BME280;22291;52.250;21.228;2023-12-07T05:08:33;100684.00;;;-0.80;94.24
36254;BME280;22291;52.250;21.228;2023-12-07T05:11:00;100685.60;;;-0.79;94.26
36254;BME280;22291;52.250;21.228;2023-12-07T05:13:28;100691.22;;;-0.78;94.30
36254;BME280;22291;52.250;21.228;2023-12-07T05:15:54;100688.34;;;-0.76;94.30
36254;BME280;22291;52.250;21.228;2023-12-07T05:18:21;100691.80;;;-0.76;94.29
36254;BME280;22291;52.250;21.228;2023-12-07T05:20:48;100687.77;;;-0.78;94.36
36254;BME280;22291;52.250;21.228;2023-12-07T05:23:16;100695.73;;;-0.78;94.40
36254;BME280;22291;52.250;21.228;2023-12-07T05:25:44;100696.31;;;-0.76;94.42
36254;BME280;22291;52.250;21.228;2023-12-07T05:28:11;100698.23;;;-0.74;94.39
36254;BME280;22291;52.250;21.228;2023-12-07T05:30:38;100701.41;;;-0.74;94.37
36254;BME280;22291;52.250;21.228;2023-12-07T05:33:05;100702.43;;;-0.76;94.34
36254;BME280;22291;52.250;21.228;2023-12-07T05:35:34;100698.75;;;-0.74;94.34
36254;BME280;22291;52.250;21.228;2023-12-07T05:38:03;100699.02;;;-0.73;94.39
36254;BME280;22291;52.250;21.228;2023-12-07T05:40:30;100705.97;;;-0.72;94.36
36254;BME280;22291;52.250;21.228;2023-12-07T05:42:58;100709.95;;;-0.72;94.37
36254;BME280;22291;52.250;21.228;2023-12-07T05:45:26;100709.95;;;-0.72;94.38
36254;BME280;22291;52.250;21.228;2023-12-07T05:47:52;100710.77;;;-0.72;94.44
36254;BME280;22291;52.250;21.228;2023-12-07T05:50:20;100719.03;;;-0.71;94.48
36254;BME280;22291;52.250;21.228;2023-12-07T05:52:47;100710.48;;;-0.73;94.54
36254;BME280;22291;52.250;21.228;2023-12-07T05:55:14;100718.73;;;-0.72;94.61
36254;BME280;22291;52.250;21.228;2023-12-07T05:57:41;100710.77;;;-0.72;94.60
36254;BME280;22291;52.250;21.228;2023-12-07T06:00:08;100717.19;;;-0.70;94.62
36254;BME280;22291;52.250;21.228;2023-12-07T06:02:36;100712.39;;;-0.71;94.64
36254;BME280;22291;52.250;21.228;2023-12-07T06:05:04;100720.64;;;-0.70;94.61
36254;BME280;22291;52.250;21.228;2023-12-07T06:07:31;100724.13;;;-0.69;94.64
36254;BME280;22291;52.250;21.228;2023-12-07T06:09:59;100720.36;;;-0.71;94.71
36254;BME280;22291;52.250;21.228;2023-12-07T06:12:25;100720.64;;;-0.70;94.78
36254;BME280;22291;52.250;21.228;2023-12-07T06:14:52;100726.04;;;-0.67;94.81
36254;BME280;22291;52.250;21.228;2023-12-07T06:17:20;100724.63;;;-0.70;94.77
36254;BME280;22291;52.250;21.228;2023-12-07T06:19:48;100731.27;;;-0.70;94.82
36254;BME280;22291;52.250;21.228;2023-12-07T06:22:15;100740.07;;;-0.69;94.88
36254;BME280;22291;52.250;21.228;2023-12-07T06:24:42;100736.09;;;-0.69;94.98
36254;BME280;22291;52.250;21.228;2023-12-07T06:27:09;100735.86;;;-0.68;94.99
36254;BME280;22291;52.250;21.228;2023-12-07T06:29:36;100740.88;;;-0.69;95.01
36254;BME280;22291;52.250;21.228;2023-12-07T06:32:03;100741.40;;;-0.69;95.05
36254;BME280;22291;52.250;21.228;2023-12-07T06:34:30;100744.33;;;-0.68;95.11
36254;BME280;22291;52.250;21.228;2023-12-07T06:36:57;100743.31;;;-0.67;95.16
36254;BME280;22291;52.250;21.228;2023-12-07T06:39:24;100751.86;;;-0.65;95.19
36254;BME280;22291;52.250;21.228;2023-12-07T06:41:50;100743.67;;;-0.64;95.26
36254;BME280;22291;52.250;21.228;2023-12-07T06:44:17;100736.50;;;-0.63;95.25
36254;BME280;22291;52.250;21.228;2023-12-07T06:46:44;100745.36;;;-0.60;95.27
36254;BME280;22291;52.250;21.228;2023-12-07T06:49:11;100745.14;;;-0.59;95.31
36254;BME280;22291;52.250;21.228;2023-12-07T06:51:39;100746.25;;;-0.57;95.27
36254;BME280;22291;52.250;21.228;2023-12-07T06:54:06;100744.92;;;-0.57;95.34
36254;BME280;22291;52.250;21.228;2023-12-07T06:56:33;100758.30;;;-0.54;95.30
36254;BME280;22291;52.250;21.228;2023-12-07T06:59:01;100753.69;;;-0.57;95.24
36254;BME280;22291;52.250;21.228;2023-12-07T07:01:28;100755.64;;;-0.54;95.34
36254;BME280;22291;52.250;21.228;2023-12-07T07:03:56;100757.55;;;-0.52;95.48
36254;BME280;22291;52.250;21.228;2023-12-07T07:06:22;100764.77;;;-0.50;95.53
36254;BME280;22291;52.250;21.228;2023-12-07T07:08:49;100766.68;;;-0.48;95.62
36254;BME280;22291;52.250;21.228;2023-12-07T07:11:16;100764.38;;;-0.45;95.77
36254;BME280;22291;52.250;21.228;2023-12-07T07:13:43;100766.60;;;-0.42;95.82
36254;BME280;22291;52.250;21.228;2023-12-07T07:16:10;100762.09;;;-0.41;95.79
36254;BME280;22291;52.250;21.228;2023-12-07T07:18:40;100770.14;;;-0.39;95.76
36254;BME280;22291;52.250;21.228;2023-12-07T07:21:07;100765.98;;;-0.34;95.90
36254;BME280;22291;52.250;21.228;2023-12-07T07:23:36;100768.20;;;-0.31;96.00
36254;BME280;22291;52.250;21.228;2023-12-07T07:26:04;100771.44;;;-0.29;95.83
36254;BME280;22291;52.250;21.228;2023-12-07T07:28:31;100773.38;;;-0.27;95.89
36254;BME280;22291;52.250;21.228;2023-12-07T07:30:58;100771.88;;;-0.23;96.01
36254;BME280;22291;52.250;21.228;2023-12-07T07:33:26;100764.22;;;-0.22;96.03
36254;BME280;22291;52.250;21.228;2023-12-07T07:35:53;100771.22;;;-0.18;95.93
36254;BME280;22291;52.250;21.228;2023-12-07T07:38:19;100774.45;;;-0.16;95.93
36254;BME280;22291;52.250;21.228;2023-12-07T07:40:47;100776.67;;;-0.13;95.89
36254;BME280;22291;52.250;21.228;2023-12-07T07:43:15;100768.61;;;-0.16;95.61
36254;BME280;22291;52.250;21.228;2023-12-07T07:45:44;100766.84;;;-0.13;95.72
36254;BME280;22291;52.250;21.228;2023-12-07T07:48:12;100768.74;;;-0.11;95.85
36254;BME280;22291;52.250;21.228;2023-12-07T07:50:39;100773.39;;;-0.06;96.05
36254;BME280;22291;52.250;21.228;2023-12-07T07:53:07;100773.97;;;-0.04;96.04
36254;BME280;22291;52.250;21.228;2023-12-07T07:55:34;100780.48;;;0.00;96.16
36254;BME280;22291;52.250;21.228;2023-12-07T07:58:02;100771.22;;;0.03;96.01
36254;BME280;22291;52.250;21.228;2023-12-07T08:00:29;100777.42;;;0.06;96.06
36254;BME280;22291;52.250;21.228;2023-12-07T08:02:57;100764.65;;;0.05;95.85
36254;BME280;22291;52.250;21.228;2023-12-07T08:05:27;100771.12;;;0.09;96.03
36254;BME280;22291;52.250;21.228;2023-12-07T08:07:55;100786.54;;;0.19;96.09
36254;BME280;22291;52.250;21.228;2023-12-07T08:10:21;100770.72;;;0.15;95.97
36254;BME280;22291;52.250;21.228;2023-12-07T08:12:48;100781.14;;;0.16;95.68
36254;BME280;22291;52.250;21.228;2023-12-07T08:15:17;100777.50;;;0.20;95.77
36254;BME280;22291;52.250;21.228;2023-12-07T08:17:46;100782.33;;;0.21;95.61
36254;BME280;22291;52.250;21.228;2023-12-07T08:20:14;100783.70;;;0.23;95.76
36254;BME280;22291;52.250;21.228;2023-12-07T08:22:44;100780.06;;;0.27;95.90
36254;BME280;22291;52.250;21.228;2023-12-07T08:25:11;100777.75;;;0.30;95.94
36254;BME280;22291;52.250;21.228;2023-12-07T08:27:39;100777.30;;;0.33;95.81
36254;BME280;22291;52.250;21.228;2023-12-07T08:30:09;100778.10;;;0.34;95.57
36254;BME280;22291;52.250;21.228;2023-12-07T08:32:38;100777.66;;;0.37;95.71
36254;BME280;22291;52.250;21.228;2023-12-07T08:35:08;100782.60;;;0.43;95.71
36254;BME280;22291;52.250;21.228;2023-12-07T08:37:37;100782.87;;;0.44;95.62
36254;BME280;22291;52.250;21.228;2023-12-07T08:40:08;100789.37;;;0.48;95.67
36254;BME280;22291;52.250;21.228;2023-12-07T08:42:37;100790.17;;;0.48;95.33
36254;BME280;22291;52.250;21.228;2023-12-07T08:45:08;100793.99;;;0.52;95.38
36254;BME280;22291;52.250;21.228;2023-12-07T08:47:37;100795.40;;;0.55;95.30
36254;BME280;22291;52.250;21.228;2023-12-07T08:50:07;100796.77;;;0.58;95.41
36254;BME280;22291;52.250;21.228;2023-12-07T08:52:37;100807.84;;;0.64;95.47
36254;BME280;22291;52.250;21.228;2023-12-07T08:55:07;100803.97;;;0.69;95.68
36254;BME280;22291;52.250;21.228;2023-12-07T08:57:33;100799.80;;;0.73;95.64
36254;BME280;22291;52.250;21.228;2023-12-07T09:00:00;100803.34;;;0.76;95.33
36254;BME280;22291;52.250;21.228;2023-12-07T09:02:26;100802.87;;;0.79;95.57
36254;BME280;22291;52.250;21.228;2023-12-07T09:04:56;100802.42;;;0.82;95.08
36254;BME280;22291;52.250;21.228;2023-12-07T09:07:22;100804.86;;;0.84;94.82
36254;BME280;22291;52.250;21.228;2023-12-07T09:09:49;100802.54;;;0.87;94.97
36254;BME280;22291;52.250;21.228;2023-12-07T09:12:15;100802.00;;;0.88;94.84
36254;BME280;22291;52.250;21.228;2023-12-07T09:14:44;100808.66;;;0.88;93.98
36254;BME280;22291;52.250;21.228;2023-12-07T09:17:10;100810.45;;;0.85;93.89
36254;BME280;22291;52.250;21.228;2023-12-07T09:19:37;100798.66;;;0.81;93.54
36254;BME280;22291;52.250;21.228;2023-12-07T09:22:04;100799.34;;;0.76;93.61
36254;BME280;22291;52.250;21.228;2023-12-07T09:24:32;100799.06;;;0.75;93.57
36254;BME280;22291;52.250;21.228;2023-12-07T09:26:59;100800.09;;;0.74;93.59
36254;BME280;22291;52.250;21.228;2023-12-07T09:29:27;100796.56;;;0.71;93.30
36254;BME280;22291;52.250;21.228;2023-12-07T09:31:53;100794.35;;;0.68;93.27
36254;BME280;22291;52.250;21.228;2023-12-07T09:34:26;100794.31;;;0.65;93.27
36254;BME280;22291;52.250;21.228;2023-12-07T09:37:13;100797.13;;;0.61;93.05
36254;BME280;22291;52.250;21.228;2023-12-07T09:39:38;100803.50;;;0.60;93.42
36254;BME280;22291;52.250;21.228;2023-12-07T09:42:07;100798.76;;;0.62;93.82
36254;BME280;22291;52.250;21.228;2023-12-07T09:44:37;100800.73;;;0.67;94.23
36254;BME280;22291;52.250;21.228;2023-12-07T09:47:06;100803.67;;;0.68;93.84
36254;BME280;22291;52.250;21.228;2023-12-07T09:49:32;100804.95;;;0.65;93.53
36254;BME280;22291;52.250;21.228;2023-12-07T09:52:00;100799.06;;;0.63;93.42
36254;BME280;22291;52.250;21.228;2023-12-07T09:54:31;100801.64;;;0.61;93.17
36254;BME280;22291;52.250;21.228;2023-12-07T09:56:58;100797.42;;;0.62;93.41
36254;BME280;22291;52.250;21.228;2023-12-07T09:59:28;100799.56;;;0.63;93.22
36254;BME280;22291;52.250;21.228;2023-12-07T10:01:55;100797.95;;;0.62;93.25
36254;BME280;22291;52.250;21.228;2023-12-07T10:04:23;100792.41;;;0.63;93.65
36254;BME280;22291;52.250;21.228;2023-12-07T10:06:53;100794.35;;;0.68;93.81
36254;BME280;22291;52.250;21.228;2023-12-07T10:09:25;100793.37;;;0.71;93.96
36254;BME280;22291;52.250;21.228;2023-12-07T10:12:04;100800.41;;;0.75;93.81
36254;BME280;22291;52.250;21.228;2023-12-07T10:14:33;100799.64;;;0.77;93.93
36254;BME280;22291;52.250;21.228;2023-12-07T10:17:00;100802.92;;;0.82;93.74
36254;BME280;22291;52.250;21.228;2023-12-07T10:19:29;100800.86;;;0.84;93.50
36254;BME280;22291;52.250;21.228;2023-12-07T10:21:59;100795.00;;;0.84;93.00
36254;BME280;22291;52.250;21.228;2023-12-07T10:24:28;100799.19;;;0.80;92.56
36254;BME280;22291;52.250;21.228;2023-12-07T10:26:59;100790.32;;;0.77;92.70
36254;BME280;22291;52.250;21.228;2023-12-07T10:29:28;100792.80;;;0.81;92.86
36254;BME280;22291;52.250;21.228;2023-12-07T10:32:05;100794.13;;;0.81;92.98
36254;BME280;22291;52.250;21.228;2023-12-07T10:34:34;100795.00;;;0.84;93.07
36254;BME280;22291;52.250;21.228;2023-12-07T10:37:01;100798.42;;;0.82;92.61
36254;BME280;22291;52.250;21.228;2023-12-07T10:39:30;100803.75;;;0.82;92.68
36254;BME280;22291;52.250;21.228;2023-12-07T10:41:59;100803.75;;;0.82;92.60
36254;BME280;22291;52.250;21.228;2023-12-07T10:44:30;100808.44;;;0.78;92.21
36254;BME280;22291;52.250;21.228;2023-12-07T10:46:58;100805.47;;;0.77;92.40
36254;BME280;22291;52.250;21.228;2023-12-07T10:49:28;100807.10;;;0.78;92.80
36254;BME280;22291;52.250;21.228;2023-12-07T10:51:59;100805.47;;;0.77;92.58
36254;BME280;22291;52.250;21.228;2023-12-07T10:54:43;100804.09;;;0.74;92.49
36254;BME280;22291;52.250;21.228;2023-12-07T10:57:14;100805.34;;;0.71;92.25
36254;BME280;22291;52.250;21.228;2023-12-07T10:59:44;100801.66;;;0.72;92.68
36254;BME280;22291;52.250;21.228;2023-12-07T11:02:14;100802.41;;;0.70;92.34
36254;BME280;22291;52.250;21.228;2023-12-07T11:04:44;100795.76;;;0.70;92.59
36254;BME280;22291;52.250;21.228;2023-12-07T11:07:14;100802.95;;;0.70;92.42
36254;BME280;22291;52.250;21.228;2023-12-07T11:10:01;100804.50;;;0.68;92.67
36254;BME280;22291;52.250;21.228;2023-12-07T11:12:50;100807.97;;;0.69;92.64
36254;BME280;22291;52.250;21.228;2023-12-07T11:15:22;100804.32;;;0.72;92.82
36254;BME280;22291;52.250;21.228;2023-12-07T11:17:55;100806.11;;;0.69;92.54
36254;BME280;22291;52.250;21.228;2023-12-07T11:20:31;100803.09;;;0.66;92.24
36254;BME280;22291;52.250;21.228;2023-12-07T11:23:17;100797.20;;;0.64;92.32
36254;BME280;22291;52.250;21.228;2023-12-07T11:25:47;100792.55;;;0.59;92.08
36254;BME280;22291;52.250;21.228;2023-12-07T11:28:18;100794.34;;;0.56;92.21
36254;BME280;22291;52.250;21.228;2023-12-07T11:30:48;100793.08;;;0.59;92.71
36254;BME280;22291;52.250;21.228;2023-12-07T11:33:20;100789.66;;;0.61;92.92
36254;BME280;22291;52.250;21.228;2023-12-07T11:36:11;100789.44;;;0.62;92.91
36254;BME280;22291;52.250;21.228;2023-12-07T11:41:18;100793.39;;;0.60;92.56
36254;BME280;22291;52.250;21.228;2023-12-07T11:43:46;100795.30;;;0.62;92.83
36254;BME280;22291;52.250;21.228;2023-12-07T11:46:15;100796.89;;;0.63;92.92
36254;BME280;22291;52.250;21.228;2023-12-07T11:48:45;100792.55;;;0.59;92.61
36254;BME280;22291;52.250;21.228;2023-12-07T11:51:12;100793.84;;;0.57;92.47
36254;BME280;22291;52.250;21.228;2023-12-07T11:53:39;100781.56;;;0.55;92.47
36254;BME280;22291;52.250;21.228;2023-12-07T11:56:09;100784.90;;;0.51;92.39
36254;BME280;22291;52.250;21.228;2023-12-07T11:58:37;100797.53;;;0.55;92.83
36254;BME280;22291;52.250;21.228;2023-12-07T12:01:04;100798.06;;;0.55;92.27
36254;BME280;22291;52.250;21.228;2023-12-07T12:03:33;100798.16;;;0.48;91.88
36254;BME280;22291;52.250;21.228;2023-12-07T12:06:01;100789.87;;;0.47;92.52
36254;BME280;22291;52.250;21.228;2023-12-07T12:08:31;100800.95;;;0.53;92.55
36254;BME280;22291;52.250;21.228;2023-12-07T12:11:00;100796.38;;;0.51;92.26
36254;BME280;22291;52.250;21.228;2023-12-07T12:13:28;100787.74;;;0.47;92.15
36254;BME280;22291;52.250;21.228;2023-12-07T12:15:58;100792.08;;;0.50;92.59
36254;BME280;22291;52.250;21.228;2023-12-07T12:18:27;100798.06;;;0.55;92.76
36254;BME280;22291;52.250;21.228;2023-12-07T12:20:57;100795.97;;;0.57;92.60
36254;BME280;22291;52.250;21.228;2023-12-07T12:23:25;100794.72;;;0.60;92.57
36254;BME280;22291;52.250;21.228;2023-12-07T12:25:54;100792.28;;;0.58;92.14
36254;BME280;22291;52.250;21.228;2023-12-07T12:28:24;100790.42;;;0.59;92.53
36254;BME280;22291;52.250;21.228;2023-12-07T12:30:54;100793.01;;;0.56;92.28
36254;BME280;22291;52.250;21.228;2023-12-07T12:33:21;100788.77;;;0.46;91.67
36254;BME280;22291;52.250;21.228;2023-12-07T12:36:08;100796.18;;;0.44;91.85
36254;BME280;22291;52.250;21.228;2023-12-07T12:38:38;100795.08;;;0.42;91.74
36254;BME280;22291;52.250;21.228;2023-12-07T12:41:09;100801.33;;;0.36;91.71
36254;BME280;22291;52.250;21.228;2023-12-07T12:43:36;100805.09;;;0.38;91.80
36254;BME280;22291;52.250;21.228;2023-12-07T12:46:05;100803.47;;;0.36;91.75
36254;BME280;22291;52.250;21.228;2023-12-07T14:26:03;100849.50;;;-0.33;91.55
36254;BME280;22291;52.250;21.228;2023-12-07T14:28:30;100855.79;;;-0.36;91.53